General Aviation Weather

Text Reports

Enter one or more of the following location identifiers separated by a space:

Zip Code, Four-Character ICAO or Three-Character IATA airport codes.

METAR - Aviation Routine Weather Report
EDDK - Koeln,
Updated at 9:20 PM GMT on March 29, 2015 (11:20 PM CEST):
METAR EDDK 292120Z 28017G27KT 9999 SCT025 BKN035 09/05 Q0996 NOSIG
TAF - Terminal Area Forecast
EDDK - Koeln,
Updated at 9:20 PM GMT on March 29, 2015 (11:20 PM CEST):
TAF EDDK 291700Z 2918/3024 27015G25KT 9999 BKN030
      TEMPO 2918/2921 28025G45KT
      TEMPO 2918/3001 4000 SHRA BKN009 BKN015TCU
      BECMG 3017/3019 20007KT=
Decoded:
ID: EDDK   Koln/Bonn (CIV/, DLAMENDMENT

REPORT TIME: 29 18:26
VALID TIME: 29 March AT 18:00Z to 30 March AT 24:00Z.
INITIAL WX
   WINDS: 270 AT 15 GUST 25
   CLOUDS: 30 BKN
TEMPORARY WX FROM 18Z TO 20Z
   VISIBILITY: 2.5 MILES
   WEATHER: TSRA
   CLOUDS: 8 BKN
   CLOUDS: 20 SCT WITH CB
TEMPORARY WX FROM 18Z TO 21Z
   WINDS: 280 AT 25 GUST 45
TEMPORARY WX FROM 20Z TO 01Z
   VISIBILITY: 2.5 MILES
   WEATHER: SHRA
   CLOUDS: 9 BKN
   CLOUDS: 15 BKN WITH TCU
WX BECOMING FROM 17Z TO 19Z
   WINDS: 200 AT 7
   COMMENTS: = 

CORRECTION
INITIAL WX
   WEATHER: EDLP
   COMMENTS: 291832Z 2918/3018 25020G30KT 9999 BKN025 BKN030 
TEMPORARY WX FROM 18Z TO 20Z
   WINDS: 270 AT 25 GUST 45
   VISIBILITY: 2.5 MILES
   WEATHER: TSRA
   CLOUDS: 8 BKN
   CLOUDS: 20 SCT WITH CB
TEMPORARY WX FROM 20Z TO 22Z
   WINDS: 270 AT 25 GUST 45
   VISIBILITY: 2.8 MILES
   WEATHER: SHRA
   CLOUDS: 10 BKN
   CLOUDS: 15 SCT WITH CB
30% PROBABILITY OF WX 
TEMPORARY WX FROM 22Z TO 14Z
   WEATHER: SHRA
   CLOUDS: 14 BKN
   CLOUDS: 20 SCT WITH TCU
   COMMENTS: = 

PIREP - Pilot Weather Report
EDDK - Koeln,
Updated at 9:20 PM GMT on March 29, 2015 (11:20 PM CEST):
No PIREP is currently available for this location.
AIRMET - Airmens Meteorological Information
EDDK - Koeln,
Updated at 9:20 PM GMT on March 29, 2015 (11:20 PM CEST):
No AIRMET is currently available for this location.
SIGMET - Significant Meteorological Information
EDDK - Koeln,
Updated at 9:20 PM GMT on March 29, 2015 (11:20 PM CEST):
No SIGMET is currently available for this location.
NOTAM - Notice to Airmen
EDDK - Koeln,
Updated at 9:20 PM GMT on March 29, 2015 (11:20 PM CEST):
No NOTAM is currently available for this location.
Forecast Area
EDDK - Koeln,
Updated at 9:20 PM GMT on March 29, 2015 (11:20 PM CEST):
No NOTAM is currently available for this location.
Aviation Weather Maps